KZR335 UACC-UAUU
Flight info
| Callsign | KZR335 |
|---|---|
| Flight time | 0h 54m |
| Altitude | 34000 |
| Route | DCT DIDAL L994 DOKUT DOKUT3H |
| Aircraft | A20N/M-SDE2E3FGHIRWXY/LB1 |
Departure
| Time | 2026-05-05 09:26 |
|---|---|
| Airport | Nursultan Nazarbayev International Airport (UACC) |
Arrival
| Time | 2026-05-05 10:21 |
|---|---|
| Airport | Kostanay International Airport (UAUU) |
| Time | Latitude | Longitude | Altitude | Speed | Heading |
|---|---|---|---|---|---|
| 2026-05-05 09:04 | 51.02337 | 71.45758 | 1163 ft | 0 kts | 45° |
| 2026-05-05 09:19 | 51.02345 | 71.45771 | 1160 ft | 5 kts | 45° |
| 2026-05-05 09:19 | 51.02343 | 71.45826 | 1163 ft | 8 kts | 137° |
| 2026-05-05 09:19 | 51.02319 | 71.45868 | 1163 ft | 0 kts | 131° |
| 2026-05-05 09:20 | 51.02313 | 71.45880 | 1161 ft | 6 kts | 131° |
| 2026-05-05 09:20 | 51.02302 | 71.45946 | 1161 ft | 7 kts | 49° |
| 2026-05-05 09:20 | 51.02356 | 71.46033 | 1163 ft | 14 kts | 45° |
| 2026-05-05 09:20 | 51.02412 | 71.46142 | 1160 ft | 8 kts | 94° |
| 2026-05-05 09:21 | 51.02385 | 71.46184 | 1163 ft | 8 kts | 136° |
| 2026-05-05 09:21 | 51.02337 | 71.46265 | 1162 ft | 9 kts | 121° |
| 2026-05-05 09:21 | 51.02354 | 71.46309 | 1163 ft | 6 kts | 44° |
| 2026-05-05 09:21 | 51.02400 | 71.46382 | 1163 ft | 13 kts | 44° |
| 2026-05-05 09:22 | 51.02480 | 71.46506 | 1164 ft | 19 kts | 45° |
| 2026-05-05 09:22 | 51.02592 | 71.46683 | 1164 ft | 26 kts | 44° |
| 2026-05-05 09:22 | 51.02734 | 71.46904 | 1160 ft | 31 kts | 45° |
| 2026-05-05 09:22 | 51.02901 | 71.47164 | 1163 ft | 36 kts | 43° |
| 2026-05-05 09:23 | 51.03087 | 71.47453 | 1164 ft | 40 kts | 44° |
| 2026-05-05 09:23 | 51.03290 | 71.47770 | 1163 ft | 31 kts | 44° |
| 2026-05-05 09:23 | 51.03401 | 71.47943 | 1163 ft | 20 kts | 46° |
| 2026-05-05 09:23 | 51.03430 | 71.48148 | 1163 ft | 21 kts | 91° |
| 2026-05-05 09:24 | 51.03405 | 71.48305 | 1163 ft | 14 kts | 135° |
| 2026-05-05 09:24 | 51.03378 | 71.48348 | 1163 ft | 4 kts | 135° |
| 2026-05-05 09:24 | 51.03361 | 71.48343 | 1163 ft | 4 kts | 208° |
| 2026-05-05 09:24 | 51.03339 | 71.48310 | 1162 ft | 0 kts | 226° |
| 2026-05-05 09:25 | 51.03321 | 71.48280 | 1162 ft | 9 kts | 226° |
| 2026-05-05 09:25 | 51.03146 | 71.48009 | 1164 ft | 68 kts | 225° |
| 2026-05-05 09:26 | 51.02663 | 71.47252 | 1164 ft | 124 kts | 225° |
| 2026-05-05 09:26 | 51.01936 | 71.46124 | 1197 ft | 164 kts | 224° |
| 2026-05-05 09:26 | 51.01161 | 71.44928 | 2009 ft | 145 kts | 225° |
| 2026-05-05 09:26 | 51.00493 | 71.43803 | 2832 ft | 135 kts | 229° |
| 2026-05-05 09:27 | 50.99861 | 71.42745 | 3561 ft | 130 kts | 225° |
| 2026-05-05 09:27 | 50.99233 | 71.41768 | 4239 ft | 122 kts | 226° |
| 2026-05-05 09:27 | 50.98617 | 71.40854 | 4729 ft | 123 kts | 223° |
| 2026-05-05 09:27 | 50.97961 | 71.39940 | 5104 ft | 126 kts | 223° |
| 2026-05-05 09:28 | 50.97327 | 71.38964 | 5489 ft | 131 kts | 227° |
| 2026-05-05 09:28 | 50.96654 | 71.37821 | 5691 ft | 151 kts | 234° |
| 2026-05-05 09:28 | 50.96194 | 71.36216 | 5925 ft | 172 kts | 255° |
| 2026-05-05 09:28 | 50.96242 | 71.34143 | 6197 ft | 208 kts | 283° |
| 2026-05-05 09:29 | 50.96957 | 71.32038 | 7039 ft | 224 kts | 301° |
| 2026-05-05 09:29 | 50.97873 | 71.29935 | 7810 ft | 242 kts | 298° |
| 2026-05-05 09:29 | 50.98783 | 71.27599 | 8442 ft | 262 kts | 297° |
| 2026-05-05 09:29 | 50.99754 | 71.24995 | 9116 ft | 278 kts | 296° |
| 2026-05-05 09:30 | 51.00748 | 71.22313 | 10115 ft | 282 kts | 296° |
| 2026-05-05 09:30 | 51.01757 | 71.19597 | 10749 ft | 300 kts | 296° |
| 2026-05-05 09:30 | 51.02859 | 71.16632 | 11156 ft | 324 kts | 297° |
| 2026-05-05 09:30 | 51.04032 | 71.13488 | 11843 ft | 335 kts | 297° |
| 2026-05-05 09:31 | 51.05227 | 71.10305 | 12875 ft | 337 kts | 296° |
| 2026-05-05 09:31 | 51.06437 | 71.07077 | 13848 ft | 341 kts | 296° |
| 2026-05-05 09:31 | 51.07654 | 71.03817 | 14743 ft | 345 kts | 296° |
| 2026-05-05 09:31 | 51.08882 | 71.00523 | 15543 ft | 348 kts | 296° |
| 2026-05-05 09:32 | 51.10123 | 70.97181 | 16200 ft | 352 kts | 296° |
| 2026-05-05 09:32 | 51.11372 | 70.93815 | 16901 ft | 355 kts | 296° |
| 2026-05-05 09:32 | 51.12633 | 70.90407 | 17596 ft | 358 kts | 296° |
| 2026-05-05 09:32 | 51.13902 | 70.86978 | 18282 ft | 362 kts | 296° |
| 2026-05-05 09:33 | 51.15185 | 70.83503 | 18879 ft | 364 kts | 296° |
| 2026-05-05 09:33 | 51.16474 | 70.80008 | 19473 ft | 367 kts | 296° |
| 2026-05-05 09:33 | 51.17774 | 70.76475 | 20060 ft | 370 kts | 296° |
| 2026-05-05 09:33 | 51.19079 | 70.72926 | 20642 ft | 373 kts | 296° |
| 2026-05-05 09:34 | 51.20399 | 70.69330 | 21223 ft | 376 kts | 296° |
| 2026-05-05 09:34 | 51.21727 | 70.65709 | 21784 ft | 380 kts | 296° |
| 2026-05-05 09:34 | 51.23053 | 70.62089 | 22336 ft | 383 kts | 296° |
| 2026-05-05 09:34 | 51.24403 | 70.58396 | 22904 ft | 386 kts | 297° |
| 2026-05-05 09:35 | 51.25760 | 70.54681 | 23453 ft | 390 kts | 297° |
| 2026-05-05 09:35 | 51.28508 | 70.47144 | 24393 ft | 395 kts | 297° |
| 2026-05-05 09:35 | 51.29894 | 70.43335 | 24844 ft | 398 kts | 297° |
| 2026-05-05 09:36 | 51.31289 | 70.39497 | 25288 ft | 400 kts | 297° |
| 2026-05-05 09:36 | 51.32692 | 70.35629 | 25711 ft | 403 kts | 297° |
| 2026-05-05 09:36 | 51.34110 | 70.31713 | 26149 ft | 406 kts | 297° |
| 2026-05-05 09:36 | 51.35529 | 70.27792 | 26556 ft | 409 kts | 297° |
| 2026-05-05 09:37 | 51.36956 | 70.23841 | 26972 ft | 411 kts | 296° |
| 2026-05-05 09:37 | 51.38390 | 70.19862 | 27366 ft | 414 kts | 296° |
| 2026-05-05 09:37 | 51.39837 | 70.15844 | 27749 ft | 416 kts | 296° |
| 2026-05-05 09:37 | 51.41269 | 70.11859 | 28117 ft | 419 kts | 296° |
| 2026-05-05 09:38 | 51.42725 | 70.07803 | 28481 ft | 421 kts | 296° |
| 2026-05-05 09:38 | 51.44187 | 70.03724 | 28839 ft | 423 kts | 296° |
| 2026-05-05 09:38 | 51.45656 | 69.99616 | 29181 ft | 426 kts | 296° |
| 2026-05-05 09:38 | 51.47131 | 69.95487 | 29509 ft | 428 kts | 296° |
| 2026-05-05 09:39 | 51.48606 | 69.91322 | 29835 ft | 430 kts | 294° |
| 2026-05-05 09:39 | 51.49970 | 69.87055 | 30139 ft | 431 kts | 294° |
| 2026-05-05 09:39 | 51.51355 | 69.82773 | 30453 ft | 433 kts | 294° |
| 2026-05-05 09:39 | 51.52755 | 69.78470 | 30745 ft | 435 kts | 294° |
| 2026-05-05 09:40 | 51.54158 | 69.74153 | 31046 ft | 436 kts | 294° |
| 2026-05-05 09:40 | 51.55559 | 69.69821 | 31379 ft | 437 kts | 294° |
| 2026-05-05 09:40 | 51.58377 | 69.61052 | 31519 ft | 450 kts | 294° |
| 2026-05-05 09:41 | 51.61271 | 69.52011 | 31659 ft | 458 kts | 294° |
| 2026-05-05 09:41 | 51.62727 | 69.47454 | 31846 ft | 458 kts | 294° |
| 2026-05-05 09:41 | 51.64180 | 69.42899 | 32098 ft | 456 kts | 294° |
| 2026-05-05 09:42 | 51.65619 | 69.38379 | 32586 ft | 449 kts | 294° |
| 2026-05-05 09:42 | 51.67032 | 69.33934 | 33196 ft | 442 kts | 294° |
| 2026-05-05 09:42 | 51.68421 | 69.29554 | 33742 ft | 437 kts | 294° |
| 2026-05-05 09:42 | 51.69807 | 69.25169 | 33903 ft | 440 kts | 294° |
| 2026-05-05 09:43 | 51.72595 | 69.16316 | 33929 ft | 450 kts | 294° |
| 2026-05-05 09:43 | 51.75445 | 69.07252 | 33927 ft | 453 kts | 294° |
| 2026-05-05 09:44 | 51.78290 | 68.98168 | 33926 ft | 453 kts | 294° |
| 2026-05-05 09:44 | 51.81123 | 68.89088 | 33925 ft | 453 kts | 294° |
| 2026-05-05 09:45 | 51.83958 | 68.79969 | 33923 ft | 453 kts | 294° |
| 2026-05-05 09:45 | 51.86781 | 68.70852 | 33915 ft | 453 kts | 294° |
| 2026-05-05 09:46 | 51.89577 | 68.61788 | 33919 ft | 453 kts | 294° |
| 2026-05-05 09:46 | 51.92382 | 68.52663 | 33915 ft | 452 kts | 294° |
| 2026-05-05 09:47 | 51.95178 | 68.43532 | 33911 ft | 452 kts | 294° |
| 2026-05-05 09:47 | 51.97962 | 68.34391 | 33894 ft | 452 kts | 293° |
| 2026-05-05 09:48 | 52.00589 | 68.25128 | 33900 ft | 451 kts | 291° |
| 2026-05-05 09:48 | 52.03178 | 68.15836 | 33892 ft | 451 kts | 291° |
| 2026-05-05 09:49 | 52.05773 | 68.06574 | 33898 ft | 451 kts | 291° |
| 2026-05-05 09:49 | 52.08372 | 67.97293 | 33889 ft | 450 kts | 291° |
| 2026-05-05 09:50 | 52.10943 | 67.88075 | 33893 ft | 450 kts | 291° |
| 2026-05-05 09:50 | 52.13525 | 67.78779 | 33892 ft | 450 kts | 291° |
| 2026-05-05 09:51 | 52.16096 | 67.69487 | 33897 ft | 449 kts | 291° |
| 2026-05-05 09:51 | 52.18638 | 67.60263 | 33894 ft | 449 kts | 291° |
| 2026-05-05 09:52 | 52.21185 | 67.50982 | 33890 ft | 448 kts | 290° |
| 2026-05-05 09:52 | 52.23724 | 67.41692 | 33896 ft | 448 kts | 290° |
| 2026-05-05 09:53 | 52.26252 | 67.32408 | 33896 ft | 447 kts | 290° |
| 2026-05-05 09:53 | 52.28773 | 67.23110 | 33903 ft | 447 kts | 290° |
| 2026-05-05 09:54 | 52.31267 | 67.13878 | 33905 ft | 446 kts | 290° |
| 2026-05-05 09:54 | 52.33766 | 67.04589 | 33905 ft | 446 kts | 289° |
| 2026-05-05 09:55 | 52.36259 | 66.95284 | 33908 ft | 446 kts | 289° |
| 2026-05-05 09:55 | 52.38740 | 66.85985 | 33907 ft | 445 kts | 289° |
| 2026-05-05 09:56 | 52.41214 | 66.76674 | 33915 ft | 445 kts | 289° |
| 2026-05-05 09:56 | 52.43653 | 66.67353 | 33916 ft | 444 kts | 288° |
| 2026-05-05 09:57 | 52.46041 | 66.58017 | 33913 ft | 444 kts | 288° |
| 2026-05-05 09:57 | 52.48428 | 66.48667 | 33919 ft | 444 kts | 288° |
| 2026-05-05 09:58 | 52.50811 | 66.39315 | 33923 ft | 444 kts | 288° |
| 2026-05-05 09:58 | 52.53168 | 66.30028 | 33929 ft | 443 kts | 288° |
| 2026-05-05 09:59 | 52.55537 | 66.20656 | 33926 ft | 443 kts | 288° |
| 2026-05-05 09:59 | 52.57893 | 66.11291 | 33930 ft | 443 kts | 288° |
| 2026-05-05 10:00 | 52.60237 | 66.01940 | 33932 ft | 442 kts | 287° |
| 2026-05-05 10:00 | 52.62178 | 65.94162 | 33928 ft | 442 kts | 287° |
| 2026-05-05 10:01 | 52.64508 | 65.84795 | 33933 ft | 441 kts | 287° |
| 2026-05-05 10:01 | 52.66813 | 65.75490 | 33498 ft | 436 kts | 287° |
| 2026-05-05 10:02 | 52.67941 | 65.70920 | 32818 ft | 433 kts | 287° |
| 2026-05-05 10:02 | 52.69073 | 65.66321 | 31980 ft | 432 kts | 287° |
| 2026-05-05 10:02 | 52.70204 | 65.61719 | 31058 ft | 432 kts | 287° |
| 2026-05-05 10:02 | 52.71324 | 65.57149 | 30333 ft | 428 kts | 287° |
| 2026-05-05 10:03 | 52.72429 | 65.52644 | 29777 ft | 420 kts | 287° |
| 2026-05-05 10:03 | 52.73518 | 65.48193 | 29049 ft | 416 kts | 287° |
| 2026-05-05 10:03 | 52.74596 | 65.43778 | 28332 ft | 412 kts | 287° |
| 2026-05-05 10:03 | 52.75667 | 65.39414 | 27647 ft | 409 kts | 287° |
| 2026-05-05 10:04 | 52.76761 | 65.35101 | 26958 ft | 406 kts | 287° |
| 2026-05-05 10:04 | 52.77856 | 65.30825 | 26301 ft | 402 kts | 287° |
| 2026-05-05 10:04 | 52.78942 | 65.26581 | 25674 ft | 398 kts | 287° |
| 2026-05-05 10:04 | 52.79998 | 65.22430 | 25060 ft | 395 kts | 287° |
| 2026-05-05 10:05 | 52.81048 | 65.18258 | 24446 ft | 392 kts | 285° |
| 2026-05-05 10:05 | 52.82054 | 65.14105 | 23832 ft | 389 kts | 285° |
| 2026-05-05 10:05 | 52.83045 | 65.09949 | 23176 ft | 386 kts | 285° |
| 2026-05-05 10:05 | 52.84025 | 65.05833 | 22534 ft | 382 kts | 285° |
| 2026-05-05 10:06 | 52.84994 | 65.01767 | 21898 ft | 378 kts | 285° |
| 2026-05-05 10:06 | 52.85958 | 64.97730 | 21280 ft | 374 kts | 285° |
| 2026-05-05 10:06 | 52.86911 | 64.93736 | 20668 ft | 371 kts | 286° |
| 2026-05-05 10:06 | 52.87851 | 64.89786 | 20067 ft | 367 kts | 286° |
| 2026-05-05 10:07 | 52.88785 | 64.85859 | 19487 ft | 364 kts | 286° |
| 2026-05-05 10:07 | 52.89695 | 64.82019 | 18919 ft | 361 kts | 287° |
| 2026-05-05 10:07 | 52.90608 | 64.78162 | 18366 ft | 358 kts | 287° |
| 2026-05-05 10:07 | 52.91510 | 64.74342 | 17725 ft | 355 kts | 287° |
| 2026-05-05 10:08 | 52.92406 | 64.70548 | 17059 ft | 352 kts | 287° |
| 2026-05-05 10:08 | 52.93297 | 64.66775 | 16417 ft | 351 kts | 287° |
| 2026-05-05 10:08 | 52.94182 | 64.63017 | 15781 ft | 349 kts | 287° |
| 2026-05-05 10:08 | 52.95063 | 64.59270 | 15169 ft | 347 kts | 287° |
| 2026-05-05 10:09 | 52.95649 | 64.55443 | 14568 ft | 341 kts | 275° |
| 2026-05-05 10:09 | 52.95875 | 64.51533 | 13990 ft | 338 kts | 271° |
| 2026-05-05 10:09 | 52.96038 | 64.47660 | 13377 ft | 337 kts | 272° |
| 2026-05-05 10:09 | 52.96236 | 64.43796 | 12783 ft | 335 kts | 273° |
| 2026-05-05 10:10 | 52.96479 | 64.39972 | 12207 ft | 332 kts | 274° |
| 2026-05-05 10:10 | 52.96746 | 64.36224 | 11623 ft | 331 kts | 275° |
| 2026-05-05 10:10 | 52.97030 | 64.32479 | 11367 ft | 320 kts | 275° |
| 2026-05-05 10:10 | 52.97309 | 64.28883 | 11230 ft | 306 kts | 275° |
| 2026-05-05 10:11 | 52.97573 | 64.25465 | 11115 ft | 293 kts | 275° |
| 2026-05-05 10:11 | 52.97825 | 64.22190 | 11001 ft | 280 kts | 275° |
| 2026-05-05 10:11 | 52.98064 | 64.19044 | 10807 ft | 269 kts | 275° |
| 2026-05-05 10:11 | 52.98296 | 64.15976 | 10246 ft | 268 kts | 275° |
| 2026-05-05 10:12 | 52.98526 | 64.12887 | 9509 ft | 272 kts | 276° |
| 2026-05-05 10:12 | 52.98760 | 64.09742 | 8726 ft | 276 kts | 276° |
| 2026-05-05 10:12 | 52.98994 | 64.06604 | 7969 ft | 279 kts | 276° |
| 2026-05-05 10:12 | 52.99233 | 64.03380 | 7213 ft | 282 kts | 276° |
| 2026-05-05 10:13 | 52.99474 | 64.00129 | 6492 ft | 285 kts | 277° |
| 2026-05-05 10:13 | 52.99716 | 63.96862 | 5736 ft | 286 kts | 277° |
| 2026-05-05 10:13 | 52.99959 | 63.93569 | 4975 ft | 288 kts | 277° |
| 2026-05-05 10:13 | 53.00201 | 63.90266 | 4210 ft | 289 kts | 277° |
| 2026-05-05 10:14 | 53.00444 | 63.86949 | 3453 ft | 290 kts | 277° |
| 2026-05-05 10:14 | 53.00686 | 63.83614 | 2926 ft | 284 kts | 277° |
| 2026-05-05 10:14 | 53.00915 | 63.80458 | 2739 ft | 266 kts | 277° |
| 2026-05-05 10:14 | 53.01129 | 63.77501 | 2617 ft | 251 kts | 277° |
| 2026-05-05 10:15 | 53.01333 | 63.74698 | 2501 ft | 237 kts | 277° |
| 2026-05-05 10:15 | 53.01524 | 63.72067 | 2338 ft | 226 kts | 277° |
| 2026-05-05 10:15 | 53.01809 | 63.69609 | 2162 ft | 210 kts | 294° |
| 2026-05-05 10:15 | 53.02243 | 63.68452 | 2101 ft | 201 kts | 310° |
| 2026-05-05 10:16 | 53.03342 | 63.67176 | 1999 ft | 187 kts | 336° |
| 2026-05-05 10:16 | 53.04494 | 63.66416 | 2002 ft | 174 kts | 334° |
| 2026-05-05 10:16 | 53.05654 | 63.65594 | 2000 ft | 183 kts | 334° |
| 2026-05-05 10:16 | 53.06799 | 63.64779 | 2008 ft | 179 kts | 334° |
| 2026-05-05 10:17 | 53.07938 | 63.63976 | 2003 ft | 173 kts | 335° |
| 2026-05-05 10:17 | 53.08992 | 63.63231 | 1989 ft | 156 kts | 333° |
| 2026-05-05 10:17 | 53.09929 | 63.62571 | 1985 ft | 138 kts | 333° |
| 2026-05-05 10:17 | 53.10824 | 63.61934 | 2026 ft | 149 kts | 333° |
| 2026-05-05 10:18 | 53.11808 | 63.61239 | 1996 ft | 151 kts | 333° |
| 2026-05-05 10:18 | 53.12729 | 63.60583 | 2007 ft | 143 kts | 334° |
| 2026-05-05 10:18 | 53.13643 | 63.59934 | 1908 ft | 145 kts | 334° |
| 2026-05-05 10:18 | 53.14556 | 63.59277 | 1786 ft | 139 kts | 332° |
| 2026-05-05 10:19 | 53.15390 | 63.58652 | 1776 ft | 128 kts | 332° |
| 2026-05-05 10:19 | 53.16214 | 63.58070 | 1464 ft | 129 kts | 333° |
| 2026-05-05 10:19 | 53.17031 | 63.57509 | 1180 ft | 123 kts | 336° |
| 2026-05-05 10:19 | 53.17795 | 63.56987 | 967 ft | 116 kts | 336° |
| 2026-05-05 10:20 | 53.18561 | 63.56440 | 890 ft | 128 kts | 334° |
| 2026-05-05 10:20 | 53.19391 | 63.55846 | 712 ft | 128 kts | 336° |
| 2026-05-05 10:20 | 53.20176 | 63.55306 | 599 ft | 118 kts | 332° |
| 2026-05-05 10:20 | 53.20897 | 63.54781 | 599 ft | 99 kts | 338° |
| 2026-05-05 10:21 | 53.21254 | 63.54526 | 601 ft | 12 kts | 335° |
| 2026-05-05 10:21 | 53.21259 | 63.54522 | 601 ft | 0 kts | 335° |
| 2026-05-05 10:21 | 53.21328 | 63.54468 | 601 ft | 20 kts | 335° |
| 2026-05-05 10:21 | 53.21454 | 63.54385 | 600 ft | 20 kts | 338° |
| 2026-05-05 10:22 | 53.21603 | 63.54281 | 598 ft | 26 kts | 336° |
| 2026-05-05 10:22 | 53.21755 | 63.54192 | 597 ft | 11 kts | 18° |
| 2026-05-05 10:22 | 53.21800 | 63.54331 | 598 ft | 16 kts | 65° |
| 2026-05-05 10:22 | 53.21811 | 63.54371 | 598 ft | 0 kts | 66° |
| 2026-05-05 10:23 | 53.21812 | 63.54376 | 598 ft | 3 kts | 66° |
| 2026-05-05 10:23 | 53.21831 | 63.54447 | 598 ft | 10 kts | 66° |
| 2026-05-05 10:23 | 53.21868 | 63.54597 | 598 ft | 17 kts | 67° |
| 2026-05-05 10:24 | 53.21918 | 63.54801 | 599 ft | 16 kts | 63° |
| 2026-05-05 10:24 | 53.21963 | 63.54958 | 599 ft | 14 kts | 66° |
| 2026-05-05 10:24 | 53.21998 | 63.55088 | 599 ft | 12 kts | 67° |
| 2026-05-05 10:24 | 53.22034 | 63.55179 | 599 ft | 7 kts | 60° |
| 2026-05-05 10:25 | 53.22044 | 63.55242 | 599 ft | 4 kts | 109° |
| 2026-05-05 10:25 | 53.22032 | 63.55254 | 599 ft | 2 kts | 152° |
| 2026-05-05 10:25 | 53.22018 | 63.55264 | 599 ft | 0 kts | 157° |
| 2026-05-05 10:25 | 53.22012 | 63.55269 | 599 ft | 2 kts | 156° |
| 2026-05-05 10:26 | 53.22006 | 63.55273 | 599 ft | 0 kts | 157° |
| 2026-05-05 10:26 | 53.22005 | 63.55273 | 599 ft | 0 kts | 157° |